Flugwetter Augsburg

[source: ADDS]
METAR
EDMA 150520Z AUTO VRB02KT 9999 // OVC020/// M02/M05 Q1023 =
TAF
Cookies erleichtern die Bereitstellung unserer Dienste. Mit der Nutzung unserer Dienste erklären Sie sich damit einverstanden, dass wir Cookies verwenden.
Weitere Informationen Ok